Πλησιέστερες Αναφορές METAR

 

LGTS - Thessaloniki/Makedonia-Elev 7m
Απόσταση από σταθμό: Ν 13km
Ενημερώθηκε: 29/11/2022 22:50
Διάσπαρτα Νέφη
Διάσπαρτα Νέφη
 Ανεμοι από Α
Ανεμος: Α 7 km/h
Θερμοκρασία: 8°C
Δείκτης Ψύχρας: 7°C
Σημείο Δρόσου: 6°C
Υγρασία: 87%
Βαρόμετρο: 1016 hPa
Νέφωση: Διάσπαρτα Νέφη
Ορατότητα: 10 km
Λεπτομέρειες Νεφών: Διάσπαρτα Νέφη 1067 m
2022/11/29 20:50 LGTS 292050Z 10004KT 9999 FEW035 08/06 Q1016 NOSIG
LGAV - Athens/Elef. Venizelos-Elev 94m
Απόσταση από σταθμό: ΝΝΑ 312km
Ενημερώθηκε: 29/11/2022 23:20
Διάσπαρτα Νέφη
Διάσπαρτα Νέφη
 Ανεμοι από μεταβλητός
Ανεμος: μεταβλητός 4 km/h
Θερμοκρασία: 12°C
Σημείο Δρόσου: 7°C
Υγρασία: 72%
Βαρόμετρο: 1014 hPa
Νέφωση: Διάσπαρτα Νέφη
Ορατότητα: 10 km
Λεπτομέρειες Νεφών: Διάσπαρτα Νέφη 914 m
2022/11/29 21:20 LGAV 292120Z VRB02KT 9999 FEW030 12/07 Q1014 NOSIG
 
LGAL - Alexandroupolis-Elev 3m
Απόσταση από σταθμό: Α 251km
Ενημερώθηκε: 29/11/2022 23:20
Σχεδόν νεφελώδης
Σχεδόν νεφελώδης
 Ανεμοι από ΒΒΑ
Ανεμος: ΒΒΑ 13 km/h
Θερμοκρασία: 11°C
Σημείο Δρόσου: 8°C
Υγρασία: 82%
Βαρόμετρο: 1016 hPa
Νέφωση: Σχεδόν νεφελώδης
Ορατότητα: 10 km
Λεπτομέρειες Νεφών: Διάσπαρτα Νέφη 457 m
Σχεδόν νεφελώδης 914 m
2022/11/29 21:20 LGAL 292120Z 03007KT 9999 FEW015 BKN030 11/08 Q1016
LGKV - Kavala/Crysoupolis-Elev 5m
Απόσταση από σταθμό: ΑΒΑ 144km
Ενημερώθηκε: 29/11/2022 20:20
ΜΗ Ενημερωμένο METAR!
Σχεδόν νεφελώδης
Σχεδόν νεφελώδης
 Ανεμοι από ΑΒΑ
Ανεμος: ΑΒΑ 13 km/h
Θερμοκρασία: 11°C
Σημείο Δρόσου: 6°C
Υγρασία: 72%
Βαρόμετρο: 1016 hPa
Νέφωση: Σχεδόν νεφελώδης
Ορατότητα: 10 km
Λεπτομέρειες Νεφών: Μερικώς νεφελώδης 1067 m
Σχεδόν νεφελώδης 2134 m
2022/11/29 18:20 LGKV 291820Z 06007KT 9999 SCT035 BKN070 11/06 Q1016
 
LGSK - Skiathos Island-Elev 15m
Απόσταση από σταθμό: ΝΝΑ 168km
Ενημερώθηκε: 29/11/2022 16:50
ΜΗ Ενημερωμένο METAR!
Βροχή, Σχεδόν νεφελώδης
Βροχή, Σχεδόν νεφελώδης
 Ανεμοι από ΒΔ
Ανεμος: ΒΔ 19 km/h
Θερμοκρασία: 11°C
Σημείο Δρόσου: 9°C
Υγρασία: 88%
Βαρόμετρο: 1015 hPa
Περίληψη: Βροχή
Νέφωση: Σχεδόν νεφελώδης
Ορατότητα: 3 km
Λεπτομέρειες Νεφών: Διάσπαρτα Νέφη 244 m
Σχεδόν νεφελώδης 610 m
2022/11/29 14:50 LGSK 291450Z 31010KT 3000 RA FEW008 BKN020 11/09 Q1015
LGLM - Limnos Island-Elev 5m
Απόσταση από σταθμό: ΑΝΑ 210km
Ενημερώθηκε: 29/11/2022 22:50
Σχεδόν νεφελώδης
Σχεδόν νεφελώδης
 Ανεμοι από ΒΑ
Ανεμος: ΒΑ 22 km/h
Θερμοκρασία: 11°C
Σημείο Δρόσου: 9°C
Υγρασία: 88%
Βαρόμετρο: 1014 hPa
Νέφωση: Σχεδόν νεφελώδης
Ορατότητα: 10 km
Λεπτομέρειες Νεφών: Διάσπαρτα Νέφη 366 m
Σχεδόν νεφελώδης 762 m
2022/11/29 20:50 LGLM 292050Z 05012KT 9999 FEW012 BKN025 11/09 Q1014
 
LGMT - Mitilini Island-Elev 17m
Απόσταση από σταθμό: ΑΝΑ 358km
Ενημερώθηκε: 29/11/2022 22:50
Διάσπαρτα Νέφη
Διάσπαρτα Νέφη
 Ανεμοι από ΔΝΔ
Ανεμος: ΔΝΔ 7 km/h
Θερμοκρασία: 10°C
Δείκτης Ψύχρας: 9°C
Σημείο Δρόσου: 8°C
Υγρασία: 88%
Βαρόμετρο: 1014 hPa
Νέφωση: Διάσπαρτα Νέφη
Ορατότητα: 10 km
Λεπτομέρειες Νεφών: Διάσπαρτα Νέφη 610 m
2022/11/29 20:50 LGMT 292050Z 25004KT 9999 FEW020 10/08 Q1014
LGSY - Skiros Island-Elev 15m
Απόσταση από σταθμό: ΝΑ 227km
Ενημερώθηκε: 29/11/2022 19:50
ΜΗ Ενημερωμένο METAR!
Σχεδόν νεφελώδης
Σχεδόν νεφελώδης
 Ανεμοι από Β
Ανεμος: Β 22 km/h
Θερμοκρασία: 13°C
Σημείο Δρόσου: 10°C
Υγρασία: 82%
Βαρόμετρο: 1015 hPa
Νέφωση: Σχεδόν νεφελώδης
Ορατότητα: 10 km
Λεπτομέρειες Νεφών: Διάσπαρτα Νέφη 305 m
Σχεδόν νεφελώδης 549 m
2022/11/29 17:50 LGSY 291750Z 01012KT 9999 FEW010 BKN018 13/10 Q1015 RMK BKN080 R17 07013G23KT BLU
 
LGKZ - Kozani-Elev 628m
Απόσταση από σταθμό: ΔΝΔ 102km
Ενημερώθηκε: 29/11/2022 23:20

 Ανεμοι από Β
Ανεμος: Β 7 km/h
Θερμοκρασία: 5°C
Δείκτης Ψύχρας: 3°C
Σημείο Δρόσου: 1°C
Υγρασία: 76%
Βαρόμετρο: 1015 hPa
2022/11/29 21:20 LGKZ 292120Z AUTO 36004KT 310V010 //// // ////// 05/01 Q1015 RE//
LGIO - Ioannina-Elev 476m
Απόσταση από σταθμό: ΔΝΔ 209km
Ενημερώθηκε: 29/11/2022 23:20

 Ανεμοι από μεταβλητός
Ανεμος: μεταβλητός 4 km/h
Θερμοκρασία: 6°C
Σημείο Δρόσου: 2°C
Υγρασία: 76%
Βαρόμετρο: 1012 hPa
2022/11/29 21:20 LGIO 292120Z AUTO VRB02KT //// // ////// 06/02 Q1012 RE//
 
LGZA - Zakinthos-Elev 3m
Απόσταση από σταθμό: ΝΝΔ 367km
Ενημερώθηκε: 29/11/2022 19:50
ΜΗ Ενημερωμένο METAR!
Μερικώς νεφελώδης
Μερικώς νεφελώδης
 Ανεμοι από άπνοια
Ανεμος: άπνοια
Θερμοκρασία: 12°C
Σημείο Δρόσου: 10°C
Υγρασία: 88%
Βαρόμετρο: 1010 hPa
Νέφωση: Μερικώς νεφελώδης
Ορατότητα: 10 km
Λεπτομέρειες Νεφών: Διάσπαρτα Νέφη 610 m
Μερικώς νεφελώδης 2438 m
2022/11/29 17:50 LGZA 291750Z 00000KT 9999 FEW020 SCT080 12/10 Q1010
LGKR - Corfu Island-Elev 2m
Απόσταση από σταθμό: ΔΝΔ 282km
Ενημερώθηκε: 29/11/2022 23:20
Μερικώς νεφελώδης
Μερικώς νεφελώδης
 Ανεμοι από Α
Ανεμος: Α 13 km/h
Θερμοκρασία: 14°C
Σημείο Δρόσου: 5°C
Υγρασία: 55%
Βαρόμετρο: 1009 hPa
Νέφωση: Μερικώς νεφελώδης
Ορατότητα: 10 km
Λεπτομέρειες Νεφών: Διάσπαρτα Νέφη 610 m
Μερικώς νεφελώδης 1219 m
2022/11/29 21:20 LGKR 292120Z 08007KT 9999 FEW020 SCT040 14/05 Q1009 NOSIG
 
LGSO - Syros Island-Elev 72m
Απόσταση από σταθμό: ΝΝΑ 397km
Ενημερώθηκε: 29/11/2022 23:20

 Ανεμοι από ΑΒΑ
Ανεμος: ΑΒΑ 15 km/h
Θερμοκρασία: 15°C
Σημείο Δρόσου: 10°C
Υγρασία: 72%
Βαρόμετρο: 1013 hPa
2022/11/29 21:20 LGSO 292120Z AUTO 06008KT //// // ////// 15/10 Q1013 RE//
LGMK - Mikonos Island-Elev 123m
Απόσταση από σταθμό: ΝΝΑ 412km
Ενημερώθηκε: 29/11/2022 19:50
ΜΗ Ενημερωμένο METAR!
Μερικώς νεφελώδης
Μερικώς νεφελώδης
 Ανεμοι από ΒΒΑ
Ανεμος: ΒΒΑ 19 km/h
Θερμοκρασία: 14°C
Σημείο Δρόσου: 8°C
Υγρασία: 67%
Βαρόμετρο: 1013 hPa
Νέφωση: Μερικώς νεφελώδης
Ορατότητα: 10 km
Λεπτομέρειες Νεφών: Μερικώς νεφελώδης 549 m
2022/11/29 17:50 LGMK 291750Z 02010KT 9999 SCT018 14/08 Q1013
 
LGSR - Santorini Island-Elev 40m
Απόσταση από σταθμό: ΝΝΑ 520km
Ενημερώθηκε: 29/11/2022 22:20
Μερικώς νεφελώδης
Μερικώς νεφελώδης
 Ανεμοι από άπνοια
Ανεμος: άπνοια
Θερμοκρασία: 15°C
Σημείο Δρόσου: 11°C
Υγρασία: 77%
Βαρόμετρο: 1013 hPa
Νέφωση: Μερικώς νεφελώδης
Ορατότητα: 10 km
Λεπτομέρειες Νεφών: Μερικώς νεφελώδης 762 m
2022/11/29 20:20 LGSR 292020Z 00000KT 9999 SCT025 15/11 Q1013
LGKL - Kalamata-Elev 8m
Απόσταση από σταθμό: Ν 405km
Ενημερώθηκε: 29/11/2022 23:20
Ασθενής βροχή, Σχεδόν νεφελώδης
Ασθενής βροχή, Σχεδόν νεφελώδης
 Ανεμοι από ΒΒΔ
Ανεμος: ΒΒΔ 9 km/h
Θερμοκρασία: 11°C
Σημείο Δρόσου: 9°C
Υγρασία: 88%
Βαρόμετρο: 1011 hPa
Περίληψη: Ασθενής βροχή
Νέφωση: Σχεδόν νεφελώδης
Ορατότητα: 10 km
Λεπτομέρειες Νεφών: Μερικώς νεφελώδης 762 m
Σχεδόν νεφελώδης 2134 m
2022/11/29 21:20 LGKL 292120Z 33005KT 9999 -RA SCT025 BKN070 11/09 Q1011
 
LGIR - Iraklion/Crete-Elev 5m
Απόσταση από σταθμό: ΝΝΑ 622km
Ενημερώθηκε: 29/11/2022 23:20
Μερικώς νεφελώδης
Μερικώς νεφελώδης
 Ανεμοι από ΝΝΑ
Ανεμος: ΝΝΑ 15 km/h
Θερμοκρασία: 13°C
Σημείο Δρόσου: 10°C
Υγρασία: 82%
Βαρόμετρο: 1013 hPa
Νέφωση: Μερικώς νεφελώδης
Ορατότητα: 10 km
Λεπτομέρειες Νεφών: Μερικώς νεφελώδης 610 m
2022/11/29 21:20 LGIR 292120Z 16008KT 9999 SCT020 13/10 Q1013 NOSIG
LGRP - Rhodes-Elev 5m
Απόσταση από σταθμό: ΝΑ 649km
Ενημερώθηκε: 29/11/2022 23:20
Διάσπαρτα Νέφη
Διάσπαρτα Νέφη
 Ανεμοι από μεταβλητός
Ανεμος: μεταβλητός 2 km/h
Θερμοκρασία: 15°C
Σημείο Δρόσου: 13°C
Υγρασία: 88%
Βαρόμετρο: 1012 hPa
Νέφωση: Διάσπαρτα Νέφη
Ορατότητα: 10 km
Λεπτομέρειες Νεφών: Διάσπαρτα Νέφη 549 m
2022/11/29 21:20 LGRP 292120Z VRB01KT 9999 FEW018 15/13 Q1012 NOSIG
 
LWOH - Ohrid/FYROM-Elev 761m
Απόσταση από σταθμό: ΔΒΔ 188km
Ενημερώθηκε: 29/11/2022 22:00
ΜΗ Ενημερωμένο METAR!
Συννεφιά
Συννεφιά
 Ανεμοι από ΒΒΔ
Ανεμος: ΒΒΔ 15 km/h
Θερμοκρασία: 5°C
Δείκτης Ψύχρας: 2°C
Σημείο Δρόσου: -1°C
Υγρασία: 66%
Βαρόμετρο: 1014 hPa
Νέφωση: Συννεφιά
Ορατότητα: 10 km
Λεπτομέρειες Νεφών: Σχεδόν νεφελώδης 1067 m
Συννεφιά 2438 m
2022/11/29 20:00 LWOH 292000Z 33008KT 9999 BKN035 OVC080 05/M01 Q1014
LBSF - Sofia/Bulgaria-Elev 595m
Απόσταση από σταθμό: Β 227km
Ενημερώθηκε: 29/11/2022 23:00
Συννεφιά
Συννεφιά
 Ανεμοι από ΝΑ
Ανεμος: ΝΑ 9 km/h
Θερμοκρασία: 3°C
Δείκτης Ψύχρας: 0°C
Σημείο Δρόσου: 2°C
Υγρασία: 93%
Βαρόμετρο: 1019 hPa
Νέφωση: Συννεφιά
Ορατότητα: 10 km
Λεπτομέρειες Νεφών: Διάσπαρτα Νέφη 457 m
Σχεδόν νεφελώδης 610 m
Συννεφιά 1036 m
2022/11/29 21:00 LBSF 292100Z AUTO 13005KT 9999 FEW015/// BKN020/// OVC034/// 03/02 Q1019 NOSIG